Time,TemperatureF,DewpointF,PressureIn,WindDirection,WindDirectionDegrees,WindSpeedMPH,WindSpeedGustMPH,Humidity,HourlyPrecipIn,Conditions,Clouds,dailyrainin,SoftwareType,DateUTC
2013-07-24 00:13:00,58.4,56.0,29.98,ENE,72,0.0,0.0,91,0.00,,,0.01,weatherlink.com 1.10,2013-07-24 05:13:00,
2013-07-24 00:28:00,58.0,56.0,29.97,ENE,72,0.0,0.0,92,0.00,,,0.01,weatherlink.com 1.10,2013-07-24 05:28:00,
2013-07-24 00:43:00,57.7,55.0,29.98,ENE,72,0.0,0.0,92,0.00,,,0.01,weatherlink.com 1.10,2013-07-24 05:43:00,
2013-07-24 00:58:00,57.4,55.0,29.98,ENE,72,0.0,0.0,93,0.00,,,0.01,weatherlink.com 1.10,2013-07-24 05:58:00,
2013-07-24 01:13:00,57.0,55.0,29.98,ENE,72,0.0,0.0,93,0.00,,,0.01,weatherlink.com 1.10,2013-07-24 06:13:00,
2013-07-24 01:28:00,56.8,55.0,29.98,ENE,72,0.0,0.0,94,0.00,,,0.01,weatherlink.com 1.10,2013-07-24 06:28:00,
2013-07-24 01:43:00,56.7,55.0,29.97,ENE,72,0.0,0.0,94,0.00,,,0.01,weatherlink.com 1.10,2013-07-24 06:43:00,
2013-07-24 01:58:00,56.7,55.0,29.98,ENE,72,0.0,0.0,94,0.00,,,0.01,weatherlink.com 1.10,2013-07-24 06:58:00,
2013-07-24 02:13:00,56.5,55.0,29.98,ENE,72,0.0,0.0,94,0.00,,,0.01,weatherlink.com 1.10,2013-07-24 07:13:00,
2013-07-24 02:28:00,56.0,54.0,29.98,ENE,72,0.0,1.0,94,0.00,,,0.01,weatherlink.com 1.10,2013-07-24 07:28:00,
2013-07-24 02:43:00,55.7,54.0,29.98,ENE,72,0.0,1.0,95,0.00,,,0.00,weatherlink.com 1.10,2013-07-24 07:43:00,
2013-07-24 02:58:00,55.2,54.0,29.99,NE,48,0.0,1.0,95,0.00,,,0.00,weatherlink.com 1.10,2013-07-24 07:58:00,
2013-07-24 03:13:00,55.0,54.0,29.99,NE,48,0.0,0.0,95,0.00,,,0.00,weatherlink.com 1.10,2013-07-24 08:13:00,
2013-07-24 03:28:00,54.6,53.0,29.99,NE,48,0.0,0.0,95,0.00,,,0.00,weatherlink.com 1.10,2013-07-24 08:28:00,
2013-07-24 03:43:00,54.4,53.0,29.99,NE,48,0.0,0.0,95,0.00,,,0.00,weatherlink.com 1.10,2013-07-24 08:43:00,
2013-07-24 03:58:00,54.1,53.0,29.99,NE,48,0.0,0.0,95,0.00,,,0.00,weatherlink.com 1.10,2013-07-24 08:58:00,
2013-07-24 04:13:00,53.6,52.0,29.99,NE,48,0.0,1.0,95,0.00,,,0.00,weatherlink.com 1.10,2013-07-24 09:13:00,
2013-07-24 04:28:00,53.2,52.0,29.99,NE,48,0.0,1.0,95,0.00,,,0.00,weatherlink.com 1.10,2013-07-24 09:28:00,
2013-07-24 04:43:00,53.0,52.0,30.00,NE,48,0.0,0.0,96,0.00,,,0.00,weatherlink.com 1.10,2013-07-24 09:43:00,
2013-07-24 04:58:00,53.1,52.0,30.00,NE,48,0.0,0.0,96,0.00,,,0.00,weatherlink.com 1.10,2013-07-24 09:58:00,
2013-07-24 05:13:00,53.0,52.0,30.01,NE,48,0.0,0.0,96,0.00,,,0.00,weatherlink.com 1.10,2013-07-24 10:13:00,
2013-07-24 05:28:00,53.1,52.0,30.01,NNE,31,0.0,1.0,97,0.00,,,0.00,weatherlink.com 1.10,2013-07-24 10:28:00,
2013-07-24 05:43:00,52.9,52.0,30.02,NNE,31,0.0,0.0,96,0.00,,,0.00,weatherlink.com 1.10,2013-07-24 10:43:00,
2013-07-24 05:58:00,52.7,52.0,30.02,NNE,17,0.0,2.0,96,0.00,,,0.00,weatherlink.com 1.10,2013-07-24 10:58:00,
2013-07-24 06:13:00,52.6,52.0,30.02,NNE,17,0.0,0.0,97,0.00,,,0.00,weatherlink.com 1.10,2013-07-24 11:13:00,
2013-07-24 06:28:00,52.8,52.0,30.02,NNE,17,0.0,0.0,97,0.00,,,0.00,weatherlink.com 1.10,2013-07-24 11:28:00,
2013-07-24 06:43:00,53.4,53.0,30.03,NNE,17,0.0,1.0,97,0.00,,,0.00,weatherlink.com 1.10,2013-07-24 11:43:00,
2013-07-24 06:59:00,53.9,53.0,30.04,NNE,17,0.0,1.0,97,0.00,,,0.00,weatherlink.com 1.10,2013-07-24 11:59:00,
2013-07-24 07:14:00,54.6,54.0,30.04,NNE,17,1.0,1.0,97,0.00,,,0.00,weatherlink.com 1.10,2013-07-24 12:14:00,
2013-07-24 07:29:00,55.5,55.0,30.04,NNE,17,0.0,0.0,98,0.00,,,0.00,weatherlink.com 1.10,2013-07-24 12:29:00,
2013-07-24 07:44:00,56.6,56.0,30.05,NNE,17,0.0,1.0,97,0.00,,,0.00,weatherlink.com 1.10,2013-07-24 12:44:00,
2013-07-24 07:59:00,57.9,57.0,30.05,NNE,16,0.0,1.0,96,0.00,,,0.00,weatherlink.com 1.10,2013-07-24 12:59:00,
2013-07-24 08:14:00,59.3,58.0,30.05,NNE,16,0.0,1.0,94,0.00,,,0.00,weatherlink.com 1.10,2013-07-24 13:14:00,
2013-07-24 08:29:00,60.3,58.0,30.05,NNE,30,0.0,2.0,92,0.00,,,0.00,weatherlink.com 1.10,2013-07-24 13:29:00,
2013-07-24 08:44:00,61.3,58.0,30.05,NNE,31,1.0,2.0,89,0.00,,,0.00,weatherlink.com 1.10,2013-07-24 13:44:00,
2013-07-24 08:59:00,62.4,58.0,30.05,NE,40,2.0,3.0,86,0.00,,,0.00,weatherlink.com 1.10,2013-07-24 13:59:00,
2013-07-24 09:14:00,63.4,58.0,30.04,ENE,78,1.0,3.0,82,0.00,,,0.00,weatherlink.com 1.10,2013-07-24 14:14:00,
2013-07-24 09:29:00,64.3,57.0,30.04,ENE,69,1.0,4.0,77,0.00,,,0.00,weatherlink.com 1.10,2013-07-24 14:29:00,
2013-07-24 09:44:00,65.0,57.0,30.05,ENE,71,1.0,4.0,74,0.00,,,0.00,weatherlink.com 1.10,2013-07-24 14:44:00,
2013-07-24 09:59:00,65.9,56.0,30.05,East,80,0.0,4.0,71,0.00,,,0.00,weatherlink.com 1.10,2013-07-24 14:59:00,
2013-07-24 10:14:00,66.4,57.0,30.05,ENE,62,1.0,5.0,71,0.00,,,0.00,weatherlink.com 1.10,2013-07-24 15:14:00,
2013-07-24 10:29:00,66.7,55.0,30.05,ENE,71,1.0,3.0,67,0.00,,,0.00,weatherlink.com 1.10,2013-07-24 15:29:00,
2013-07-24 10:44:00,67.0,56.0,30.05,North,9,0.0,5.0,68,0.00,,,0.00,weatherlink.com 1.10,2013-07-24 15:44:00,
2013-07-24 10:59:00,66.9,56.0,30.05,North,355,1.0,3.0,68,0.00,,,0.00,weatherlink.com 1.10,2013-07-24 15:59:00,
2013-07-24 11:14:00,67.4,55.0,30.06,ENE,63,0.0,3.0,65,0.00,,,0.00,weatherlink.com 1.10,2013-07-24 16:14:00,
2013-07-24 11:29:00,68.3,55.0,30.06,NNE,32,3.0,5.0,63,0.00,,,0.00,weatherlink.com 1.10,2013-07-24 16:29:00,
2013-07-24 11:44:00,70.1,56.0,30.06,ENE,76,0.0,4.0,62,0.00,,,0.00,weatherlink.com 1.10,2013-07-24 16:44:00,
2013-07-24 11:59:00,70.3,55.0,30.06,South,172,1.0,3.0,58,0.00,,,0.00,weatherlink.com 1.10,2013-07-24 16:59:00,
2013-07-24 12:14:00,71.0,56.0,30.06,ENE,73,1.0,3.0,60,0.00,,,0.00,weatherlink.com 1.10,2013-07-24 17:14:00,
2013-07-24 12:29:00,70.9,57.0,30.06,NNE,26,2.0,3.0,61,0.00,,,0.00,weatherlink.com 1.10,2013-07-24 17:29:00,
2013-07-24 12:44:00,71.5,55.0,30.05,North,355,1.0,3.0,56,0.00,,,0.00,weatherlink.com 1.10,2013-07-24 17:44:00,
2013-07-24 13:00:00,71.9,55.0,30.05,ENE,77,2.0,4.0,56,0.00,,,0.00,weatherlink.com 1.10,2013-07-24 18:00:00,
2013-07-24 13:15:00,73.0,58.0,30.05,NE,39,0.0,4.0,59,0.00,,,0.00,weatherlink.com 1.10,2013-07-24 18:15:00,
2013-07-24 13:30:00,73.2,55.0,30.05,ENE,71,1.0,3.0,53,0.00,,,0.00,weatherlink.com 1.10,2013-07-24 18:30:00,
2013-07-24 13:45:00,72.5,55.0,30.04,NNE,22,1.0,3.0,54,0.00,,,0.00,weatherlink.com 1.10,2013-07-24 18:45:00,
2013-07-24 14:00:00,72.8,54.0,30.04,East,86,0.0,5.0,52,0.00,,,0.00,weatherlink.com 1.10,2013-07-24 19:00:00,
2013-07-24 14:15:00,72.3,56.0,30.04,NE,55,0.0,3.0,57,0.00,,,0.00,weatherlink.com 1.10,2013-07-24 19:15:00,
2013-07-24 14:30:00,71.9,55.0,30.04,ENE,59,0.0,3.0,56,0.00,,,0.00,weatherlink.com 1.10,2013-07-24 19:30:00,
2013-07-24 14:45:00,71.5,55.0,30.04,North,5,0.0,3.0,57,0.00,,,0.00,weatherlink.com 1.10,2013-07-24 19:45:00,
2013-07-24 15:00:00,72.5,57.0,30.03,ENE,71,1.0,3.0,59,0.00,,,0.00,weatherlink.com 1.10,2013-07-24 20:00:00,
2013-07-24 15:15:00,72.8,56.0,30.03,NE,48,2.0,5.0,55,0.00,,,0.00,weatherlink.com 1.10,2013-07-24 20:15:00,
2013-07-24 15:30:00,72.7,54.0,30.03,SE,142,1.0,3.0,53,0.00,,,0.00,weatherlink.com 1.10,2013-07-24 20:30:00,
2013-07-24 15:45:00,72.9,55.0,30.02,NW,312,0.0,3.0,54,0.00,,,0.00,weatherlink.com 1.10,2013-07-24 20:45:00,
2013-07-24 16:00:00,73.2,56.0,30.02,East,80,0.0,3.0,55,0.00,,,0.00,weatherlink.com 1.10,2013-07-24 21:00:00,
2013-07-24 16:15:00,73.1,55.0,30.02,NE,49,0.0,3.0,53,0.00,,,0.00,weatherlink.com 1.10,2013-07-24 21:15:00,
2013-07-24 16:30:00,72.5,57.0,30.02,NE,42,0.0,2.0,58,0.00,,,0.00,weatherlink.com 1.10,2013-07-24 21:30:00,
2013-07-24 16:45:00,72.2,55.0,30.02,NE,42,1.0,1.0,56,0.00,,,0.00,weatherlink.com 1.10,2013-07-24 21:45:00,
2013-07-24 17:00:00,72.5,55.0,30.02,NNE,20,0.0,2.0,54,0.00,,,0.00,weatherlink.com 1.10,2013-07-24 22:00:00,
2013-07-24 17:15:00,72.7,56.0,30.02,NE,53,1.0,3.0,56,0.00,,,0.00,weatherlink.com 1.10,2013-07-24 22:15:00,
2013-07-24 17:30:00,73.5,56.0,30.02,NE,46,0.0,3.0,54,0.00,,,0.00,weatherlink.com 1.10,2013-07-24 22:30:00,
2013-07-24 17:45:00,74.6,56.0,30.02,NE,53,1.0,2.0,53,0.00,,,0.00,weatherlink.com 1.10,2013-07-24 22:45:00,
2013-07-24 18:00:00,75.0,56.0,30.02,NE,41,0.0,2.0,52,0.00,,,0.00,weatherlink.com 1.10,2013-07-24 23:00:00,
2013-07-24 18:15:00,75.5,56.0,30.02,ENE,57,0.0,2.0,51,0.00,,,0.00,weatherlink.com 1.10,2013-07-24 23:15:00,
2013-07-24 18:30:00,74.6,56.0,30.02,ENE,57,0.0,1.0,53,0.00,,,0.00,weatherlink.com 1.10,2013-07-24 23:30:00,
2013-07-24 18:45:00,75.3,56.0,30.03,ENE,57,0.0,1.0,52,0.00,,,0.00,weatherlink.com 1.10,2013-07-24 23:45:00,
2013-07-24 19:00:00,74.7,58.0,30.03,ENE,57,0.0,0.0,56,0.00,,,0.00,weatherlink.com 1.10,2013-07-25 00:00:00,
2013-07-24 19:15:00,73.4,58.0,30.03,ENE,57,0.0,1.0,58,0.00,,,0.00,weatherlink.com 1.10,2013-07-25 00:15:00,
2013-07-24 19:30:00,72.2,58.0,30.03,ENE,57,0.0,1.0,62,0.00,,,0.00,weatherlink.com 1.10,2013-07-25 00:30:00,
2013-07-24 19:45:00,70.4,58.0,30.03,ENE,57,0.0,1.0,65,0.00,,,0.00,weatherlink.com 1.10,2013-07-25 00:45:00,
2013-07-24 20:00:00,69.1,58.0,30.03,ENE,57,0.0,0.0,67,0.00,,,0.00,weatherlink.com 1.10,2013-07-25 01:00:00,
2013-07-24 20:15:00,68.1,58.0,30.03,ENE,57,1.0,2.0,69,0.00,,,0.00,weatherlink.com 1.10,2013-07-25 01:15:00,
2013-07-24 20:30:00,66.7,58.0,30.03,ENE,59,0.0,1.0,74,0.00,,,0.00,weatherlink.com 1.10,2013-07-25 01:30:00,
2013-07-24 20:45:00,65.6,58.0,30.03,ENE,59,0.0,1.0,77,0.00,,,0.00,weatherlink.com 1.10,2013-07-25 01:45:00,
2013-07-24 21:00:00,64.7,58.0,30.03,ENE,59,0.0,2.0,79,0.00,,,0.00,weatherlink.com 1.10,2013-07-25 02:00:00,
2013-07-24 21:15:00,64.1,58.0,30.03,ENE,59,0.0,1.0,80,0.00,,,0.00,weatherlink.com 1.10,2013-07-25 02:15:00,
2013-07-24 21:30:00,63.4,58.0,30.03,ENE,59,1.0,2.0,81,0.00,,,0.00,weatherlink.com 1.10,2013-07-25 02:30:00,
2013-07-24 21:45:00,62.7,57.0,30.03,ENE,59,1.0,2.0,81,0.00,,,0.00,weatherlink.com 1.10,2013-07-25 02:45:00,
2013-07-24 22:00:00,62.2,57.0,30.04,ENE,59,1.0,2.0,82,0.00,,,0.00,weatherlink.com 1.10,2013-07-25 03:00:00,
2013-07-24 22:30:00,61.0,56.0,30.04,ENE,59,0.0,2.0,84,0.00,,,0.00,weatherlink.com 1.10,2013-07-25 03:30:00,
2013-07-24 22:45:00,60.4,56.0,30.05,ENE,59,0.0,1.0,86,0.00,,,0.00,weatherlink.com 1.10,2013-07-25 03:45:00,
2013-07-24 23:00:00,59.9,56.0,30.05,ENE,59,0.0,0.0,86,0.00,,,0.00,weatherlink.com 1.10,2013-07-25 04:00:00,
2013-07-24 23:15:00,59.4,56.0,30.05,ENE,59,0.0,0.0,87,0.00,,,0.00,weatherlink.com 1.10,2013-07-25 04:15:00,
2013-07-24 23:30:00,58.9,56.0,30.05,ENE,59,0.0,0.0,89,0.00,,,0.00,weatherlink.com 1.10,2013-07-25 04:30:00,
2013-07-24 23:45:00,58.3,56.0,30.06,ENE,59,0.0,0.0,90,0.00,,,0.00,weatherlink.com 1.10,2013-07-25 04:45:00,